Time;durP1;ratioP1;P1;durP2;ratioP2;P2;SDS_P1;SDS_P2;PMS_P1;PMS_P2;Temp;Humidity;BMP_temperature;BMP_pressure;BME280_temperature;BME280_humidity;BME280_pressure;Samples;Min_cycle;Max_cycle;Signal;HPM_P1;HPM_P2
2021/08/23 00:00:28;;;;;;;6.27;5.77;;;;;;;12.01;100.00;98348.06;5043658;28;20235;-67
2021/08/23 00:02:56;;;;;;;6.37;5.87;;;;;;;11.95;100.00;98351.34;5050753;28;20202;-67
2021/08/23 00:05:25;;;;;;;7.50;6.90;;;;;;;11.89;100.00;98350.16;5045222;28;20199;-68
2021/08/23 00:07:53;;;;;;;9.13;6.50;;;;;;;11.91;100.00;98350.00;5044431;28;20211;-67
2021/08/23 00:10:22;;;;;;;6.47;5.87;;;;;;;11.87;100.00;98346.84;5048950;28;20238;-67
2021/08/23 00:12:50;;;;;;;6.13;5.63;;;;;;;11.80;100.00;98337.88;5044798;28;20214;-68
2021/08/23 00:15:18;;;;;;;7.27;6.50;;;;;;;11.82;100.00;98349.16;5043680;28;20196;-66
2021/08/23 00:17:46;;;;;;;7.50;6.33;;;;;;;11.77;100.00;98352.31;5044285;28;20229;-67
2021/08/23 00:20:16;;;;;;;6.90;6.30;;;;;;;11.73;100.00;98343.00;5046594;28;20227;-67
2021/08/23 00:22:51;;;;;;;6.57;6.07;;;;;;;11.71;100.00;98342.34;5044042;28;20692;-67
2021/08/23 00:25:19;;;;;;;7.17;6.57;;;;;;;11.77;100.00;98343.53;5049738;28;20445;-68
2021/08/23 00:27:48;;;;;;;5.97;5.57;;;;;;;11.79;100.00;98346.84;5045983;28;20586;-67
2021/08/23 00:30:17;;;;;;;7.53;6.73;;;;;;;11.79;100.00;98354.81;5050703;28;20218;-67
2021/08/23 00:32:45;;;;;;;6.90;6.30;;;;;;;11.74;100.00;98355.28;5047898;28;20600;-68
2021/08/23 00:35:13;;;;;;;6.03;5.53;;;;;;;11.64;100.00;98352.75;5043086;28;20398;-67
2021/08/23 00:37:41;;;;;;;6.40;5.90;;;;;;;11.63;100.00;98356.41;5054669;28;20218;-68
2021/08/23 00:40:11;;;;;;;7.60;7.00;;;;;;;11.65;100.00;98357.06;5047310;28;20261;-68
2021/08/23 00:42:40;;;;;;;7.20;6.50;;;;;;;11.73;100.00;98357.09;5050453;28;20207;-67
2021/08/23 00:45:09;;;;;;;7.37;6.77;;;;;;;11.75;100.00;98364.09;5050671;28;20743;-66
2021/08/23 00:47:37;;;;;;;6.83;6.17;;;;;;;11.82;100.00;98357.94;5046813;28;20702;-69
2021/08/23 00:50:06;;;;;;;7.90;6.80;;;;;;;11.74;100.00;98363.25;5048130;28;20212;-67
2021/08/23 00:52:33;;;;;;;6.83;6.20;;;;;;;11.68;100.00;98364.72;5046917;28;20711;-66
2021/08/23 00:55:03;;;;;;;7.83;6.53;;;;;;;11.68;100.00;98367.38;5046364;28;20211;-68
2021/08/23 00:57:36;;;;;;;7.20;6.60;;;;;;;11.73;100.00;98364.25;5045259;28;20223;-67
2021/08/23 01:00:05;;;;;;;6.87;6.23;;;;;;;11.76;100.00;98366.56;5048358;28;20203;-67
2021/08/23 01:02:34;;;;;;;7.07;6.47;;;;;;;11.75;100.00;98370.22;5046617;28;20207;-67
2021/08/23 01:05:05;;;;;;;7.33;6.77;;;;;;;11.73;100.00;98370.38;5045559;28;20204;-66
2021/08/23 01:07:36;;;;;;;7.17;6.47;;;;;;;11.72;100.00;98367.88;5048343;28;20265;-67
2021/08/23 01:10:08;;;;;;;7.50;6.80;;;;;;;11.81;100.00;98372.22;5048028;28;20583;-67
2021/08/23 01:12:38;;;;;;;7.23;6.60;;;;;;;11.78;100.00;98377.84;5043961;28;20208;-68
2021/08/23 01:15:07;;;;;;;7.17;6.47;;;;;;;11.72;100.00;98362.59;5046936;28;20698;-67
2021/08/23 01:17:35;;;;;;;6.63;6.07;;;;;;;11.70;100.00;98373.34;5056498;28;20719;-66
2021/08/23 01:20:05;;;;;;;5.90;5.40;;;;;;;11.66;100.00;98371.19;5042478;28;20227;-67
2021/08/23 01:22:38;;;;;;;7.50;5.60;;;;;;;11.55;100.00;98365.19;5048958;28;20498;-68
2021/08/23 01:25:07;;;;;;;7.23;6.50;;;;;;;11.53;100.00;98367.16;5054031;28;20211;-67
2021/08/23 01:27:39;;;;;;;6.37;5.70;;;;;;;11.53;100.00;98364.50;5046640;28;20211;-67
2021/08/23 01:30:10;;;;;;;6.40;5.90;;;;;;;11.50;100.00;98364.81;5049980;28;20204;-67
2021/08/23 01:32:40;;;;;;;7.00;6.40;;;;;;;11.58;100.00;98372.00;5054973;28;20200;-67
2021/08/23 01:35:08;;;;;;;6.47;6.03;;;;;;;11.48;100.00;98361.50;5048047;28;20426;-67
2021/08/23 01:37:37;;;;;;;6.67;6.17;;;;;;;11.48;100.00;98371.31;5053386;28;20220;-69
2021/08/23 01:40:06;;;;;;;6.00;5.20;;;;;;;11.54;100.00;98360.03;5047875;28;20490;-67
2021/08/23 01:42:35;;;;;;;7.93;6.30;;;;;;;11.51;100.00;98365.69;5052378;28;20460;-67
2021/08/23 01:45:03;;;;;;;6.70;6.10;;;;;;;11.49;100.00;98368.47;5055138;28;20214;-66
2021/08/23 01:47:31;;;;;;;6.80;6.27;;;;;;;11.47;100.00;98359.84;5046138;28;20203;-66
2021/08/23 01:50:00;;;;;;;6.93;6.33;;;;;;;11.51;100.00;98370.97;5050042;28;20229;-66
2021/08/23 01:52:28;;;;;;;7.07;6.50;;;;;;;11.61;100.00;98376.97;5044365;28;20714;-67
2021/08/23 01:54:56;;;;;;;7.87;7.10;;;;;;;11.69;100.00;98374.34;5048067;28;20202;-67
2021/08/23 01:57:24;;;;;;;7.10;6.60;;;;;;;11.80;100.00;98367.09;5053153;28;20658;-67
2021/08/23 01:59:52;;;;;;;7.30;6.60;;;;;;;11.86;100.00;98363.78;5052759;28;20214;-67
2021/08/23 02:02:20;;;;;;;6.63;6.13;;;;;;;11.90;100.00;98367.75;5050663;28;20286;-66
2021/08/23 02:04:48;;;;;;;7.07;6.47;;;;;;;11.85;100.00;98370.91;5053615;28;20363;-66
2021/08/23 02:07:17;;;;;;;9.27;6.93;;;;;;;11.94;100.00;98365.63;5044811;28;20210;-66
2021/08/23 02:09:45;;;;;;;6.87;6.30;;;;;;;11.93;100.00;98361.28;5057414;28;20202;-67
2021/08/23 02:12:13;;;;;;;7.27;6.53;;;;;;;11.91;100.00;98363.25;5048795;28;20223;-67
2021/08/23 02:14:41;;;;;;;9.23;6.87;;;;;;;11.92;100.00;98363.13;5051750;28;20574;-68
2021/08/23 02:17:09;;;;;;;7.13;6.53;;;;;;;11.95;100.00;98359.31;5056238;28;20237;-68
2021/08/23 02:19:37;;;;;;;6.10;5.70;;;;;;;11.95;100.00;98361.97;5050541;28;20311;-66
2021/08/23 02:22:05;;;;;;;6.43;5.93;;;;;;;11.95;100.00;98367.28;5049319;28;20273;-67
2021/08/23 02:24:35;;;;;;;7.00;6.40;;;;;;;12.01;100.00;98364.00;5050284;28;20207;-67
2021/08/23 02:27:03;;;;;;;7.23;6.53;;;;;;;12.06;100.00;98364.34;5053380;28;20227;-68
2021/08/23 02:29:31;;;;;;;6.50;6.00;;;;;;;12.06;100.00;98369.66;5051767;28;20204;-68
2021/08/23 02:31:59;;;;;;;5.90;5.53;;;;;;;12.08;100.00;98362.34;5050517;28;20231;-67
2021/08/23 02:34:27;;;;;;;7.20;6.50;;;;;;;12.08;100.00;98367.66;5045811;28;20210;-68
2021/08/23 02:36:55;;;;;;;7.77;7.07;;;;;;;12.09;100.00;98364.00;5052862;28;20748;-68
2021/08/23 02:39:23;;;;;;;6.80;6.10;;;;;;;12.20;100.00;98360.19;5050785;28;20196;-67
2021/08/23 02:41:54;;;;;;;6.23;5.63;;;;;;;12.18;100.00;98362.19;5052530;28;20660;-68
2021/08/23 02:44:22;;;;;;;6.83;6.20;;;;;;;12.20;100.00;98359.34;5049695;28;20215;-66
2021/08/23 02:46:51;;;;;;;6.00;5.50;;;;;;;12.14;100.00;98352.91;5047036;28;20199;-67
2021/08/23 02:49:19;;;;;;;7.23;6.63;;;;;;;12.14;100.00;98361.69;5050635;28;20203;-69
2021/08/23 02:51:47;;;;;;;7.10;6.50;;;;;;;12.09;100.00;98358.69;5049677;28;20226;-68
2021/08/23 02:54:15;;;;;;;5.77;5.37;;;;;;;12.09;100.00;98356.03;5045786;28;20661;-67
2021/08/23 02:56:43;;;;;;;6.10;5.60;;;;;;;12.08;100.00;98357.03;5052126;28;20202;-66
2021/08/23 02:59:12;;;;;;;7.37;6.57;;;;;;;12.08;100.00;98345.56;5050438;28;20204;-66
2021/08/23 03:01:40;;;;;;;6.70;6.20;;;;;;;12.04;100.00;98346.88;5052686;28;20222;-68
2021/08/23 03:04:08;;;;;;;7.00;6.40;;;;;;;12.04;100.00;98347.72;5049970;28;20397;-69
2021/08/23 03:06:36;;;;;;;6.97;6.23;;;;;;;11.99;100.00;98350.84;5037127;28;20206;-68
2021/08/23 03:09:04;;;;;;;6.70;6.00;;;;;;;11.96;100.00;98343.19;5041804;28;20200;-68
2021/08/23 03:11:32;;;;;;;7.07;6.53;;;;;;;11.97;100.00;98344.03;5045269;28;20231;-67
2021/08/23 03:14:00;;;;;;;6.17;5.67;;;;;;;11.92;100.00;98330.41;5048814;28;20660;-68
2021/08/23 03:16:30;;;;;;;6.77;6.07;;;;;;;11.91;100.00;98334.06;5054104;28;20207;-67
2021/08/23 03:18:58;;;;;;;6.13;5.50;;;;;;;11.84;100.00;98334.72;5045986;28;20224;-66
2021/08/23 03:21:26;;;;;;;7.10;6.50;;;;;;;11.88;100.00;98336.03;5047097;28;20235;-67
2021/08/23 03:23:54;;;;;;;7.13;6.53;;;;;;;11.84;100.00;98334.72;5053533;28;20204;-68
2021/08/23 03:26:22;;;;;;;6.83;6.33;;;;;;;11.79;100.00;98330.91;5052396;28;20211;-68
2021/08/23 03:28:51;;;;;;;7.03;6.47;;;;;;;11.77;100.00;98332.91;5051029;28;20198;-67
2021/08/23 03:31:19;;;;;;;7.83;7.03;;;;;;;11.71;100.00;98335.19;5048037;28;20219;-68
2021/08/23 03:33:48;;;;;;;7.77;7.03;;;;;;;11.68;100.00;98332.84;5045302;28;20199;-69
2021/08/23 03:36:16;;;;;;;6.90;6.40;;;;;;;11.76;100.00;98328.59;5048631;28;20314;-67
2021/08/23 03:38:47;;;;;;;7.17;6.53;;;;;;;11.72;100.00;98338.69;5048428;28;20700;-67
2021/08/23 03:41:15;;;;;;;6.60;6.10;;;;;;;11.66;100.00;98340.16;5047695;28;20234;-67
2021/08/23 03:43:43;;;;;;;10.50;6.77;;;;;;;11.67;100.00;98341.00;5054446;28;20202;-68
2021/08/23 03:46:11;;;;;;;7.03;6.37;;;;;;;11.64;100.00;98343.97;5051804;28;20206;-66
2021/08/23 03:48:39;;;;;;;6.90;6.40;;;;;;;11.57;100.00;98352.59;5048501;28;20230;-67
2021/08/23 03:51:09;;;;;;;7.43;6.73;;;;;;;11.59;100.00;98349.75;5040954;28;20223;-66
2021/08/23 03:53:37;;;;;;;7.47;6.63;;;;;;;11.65;100.00;98346.47;5054277;28;20202;-70
2021/08/23 03:56:05;;;;;;;7.37;6.67;;;;;;;11.76;100.00;98347.97;5050470;28;20215;-67
2021/08/23 03:58:33;;;;;;;6.97;6.47;;;;;;;11.81;100.00;98344.84;5050537;28;20282;-66
2021/08/23 04:01:00;;;;;;;8.17;7.00;;;;;;;11.87;100.00;98346.84;5050147;28;20229;-68
2021/08/23 04:03:34;;;;;;;7.83;6.77;;;;;;;11.94;100.00;98352.34;5046304;28;20209;-68
2021/08/23 04:06:02;;;;;;;7.23;6.73;;;;;;;11.90;100.00;98346.53;5046434;28;20202;-68
2021/08/23 04:08:31;;;;;;;6.57;6.17;;;;;;;11.93;100.00;98354.16;5051571;28;20230;-67
2021/08/23 04:10:59;;;;;;;8.30;6.67;;;;;;;12.04;100.00;98352.19;5049137;28;20234;-67
2021/08/23 04:13:27;;;;;;;7.33;6.67;;;;;;;12.08;100.00;98354.38;5048845;28;20363;-68
2021/08/23 04:15:56;;;;;;;7.23;6.70;;;;;;;12.07;100.00;98360.69;5047865;28;20644;-68
2021/08/23 04:18:24;;;;;;;7.40;6.70;;;;;;;12.08;100.00;98359.69;5050012;28;20250;-69
2021/08/23 04:20:52;;;;;;;7.93;7.33;;;;;;;12.06;100.00;98361.69;5048359;28;20233;-68
2021/08/23 04:23:20;;;;;;;7.17;6.63;;;;;;;12.07;100.00;98358.03;5041951;28;20199;-69
2021/08/23 04:25:50;;;;;;;7.77;7.17;;;;;;;12.05;100.00;98361.81;5049701;28;20206;-69
2021/08/23 04:28:18;;;;;;;7.57;6.87;;;;;;;12.07;100.00;98366.00;5045253;28;20195;-69
2021/08/23 04:30:45;;;;;;;7.80;7.20;;;;;;;12.04;100.00;98361.00;5046044;28;20230;-69
2021/08/23 04:33:13;;;;;;;7.07;6.37;;;;;;;12.09;100.00;98358.69;5042028;28;20249;-69
2021/08/23 04:35:41;;;;;;;6.43;6.03;;;;;;;12.14;100.00;98363.53;5050731;28;20983;-68
2021/08/23 04:38:09;;;;;;;7.33;6.70;;;;;;;12.14;100.00;98369.66;5047024;28;20242;-69
2021/08/23 04:40:37;;;;;;;7.90;7.13;;;;;;;12.16;100.00;98364.19;5044595;28;20220;-68
2021/08/23 04:43:07;;;;;;;7.63;7.13;;;;;;;12.20;100.00;98369.97;5044506;28;20671;-68
2021/08/23 04:45:35;;;;;;;11.53;9.03;;;;;;;12.23;100.00;98372.31;5042837;28;20207;-69
2021/08/23 04:48:03;;;;;;;9.03;8.43;;;;;;;12.34;100.00;98373.81;5050706;28;20198;-70
2021/08/23 04:50:31;;;;;;;9.80;8.80;;;;;;;12.36;100.00;98383.28;5046878;28;20231;-67
2021/08/23 04:52:59;;;;;;;9.97;9.17;;;;;;;12.46;100.00;98377.78;5042482;28;20208;-68
2021/08/23 04:55:26;;;;;;;9.43;8.73;;;;;;;12.49;100.00;98382.75;5040512;28;20215;-69
2021/08/23 04:57:55;;;;;;;9.23;8.53;;;;;;;12.58;100.00;98380.94;5050203;28;20211;-70
2021/08/23 05:00:25;;;;;;;9.27;8.47;;;;;;;12.59;100.00;98383.44;5049643;28;20241;-68
2021/08/23 05:02:53;;;;;;;9.60;8.80;;;;;;;12.62;100.00;98376.94;5050885;28;20279;-70
2021/08/23 05:05:20;;;;;;;10.57;9.57;;;;;;;12.69;100.00;98379.78;5049990;28;20200;-68
2021/08/23 05:07:48;;;;;;;9.43;8.63;;;;;;;12.76;100.00;98372.78;5052359;28;20215;-67
2021/08/23 05:10:17;;;;;;;10.13;9.43;;;;;;;12.84;100.00;98369.28;5049247;28;20223;-69
2021/08/23 05:12:45;;;;;;;9.13;8.40;;;;;;;12.81;100.00;98372.28;5045373;28;20206;-68
2021/08/23 05:15:13;;;;;;;10.37;9.57;;;;;;;12.83;100.00;98368.44;5049851;28;20207;-70
2021/08/23 05:17:42;;;;;;;10.70;9.73;;;;;;;12.92;100.00;98368.44;5051869;28;20209;-68
2021/08/23 05:20:11;;;;;;;10.20;9.47;;;;;;;13.01;100.00;98368.22;5050225;28;20220;-68
2021/08/23 05:22:39;;;;;;;10.30;9.50;;;;;;;12.98;100.00;98367.75;5053349;28;20211;-69
2021/08/23 05:25:08;;;;;;;10.17;9.37;;;;;;;13.09;100.00;98366.56;5049877;28;20421;-70
2021/08/23 05:27:36;;;;;;;11.57;10.67;;;;;;;13.03;100.00;98366.22;5056456;28;20203;-68
2021/08/23 05:30:06;;;;;;;10.33;9.43;;;;;;;13.11;100.00;98361.91;5052205;28;20203;-69
2021/08/23 05:32:34;;;;;;;9.63;8.83;;;;;;;13.19;100.00;98359.22;5050826;28;20668;-67
2021/08/23 05:35:03;;;;;;;11.13;10.23;;;;;;;13.22;100.00;98356.19;5053109;28;20195;-69
2021/08/23 05:37:32;;;;;;;13.87;9.23;;;;;;;13.29;100.00;98357.16;5046604;28;20226;-68
2021/08/23 05:40:00;;;;;;;10.30;9.27;;;;;;;13.31;100.00;98362.34;5053156;28;20587;-67
2021/08/23 05:42:28;;;;;;;11.30;10.50;;;;;;;13.29;100.00;98353.69;5045401;28;20214;-70
2021/08/23 05:44:57;;;;;;;10.13;9.33;;;;;;;13.28;100.00;98360.84;5051925;28;20217;-70
2021/08/23 05:47:25;;;;;;;10.97;9.87;;;;;;;13.35;100.00;98355.66;5048369;28;20207;-67
2021/08/23 05:49:53;;;;;;;10.90;9.90;;;;;;;13.33;100.00;98365.66;5050126;28;20934;-68
2021/08/23 05:52:22;;;;;;;11.67;10.47;;;;;;;13.42;100.00;98369.97;5051087;28;20207;-69
2021/08/23 05:54:50;;;;;;;10.37;9.47;;;;;;;13.48;100.00;98364.94;5052349;28;20328;-68
2021/08/23 05:57:18;;;;;;;10.97;10.17;;;;;;;13.47;100.00;98361.47;5049867;28;20290;-69
2021/08/23 05:59:46;;;;;;;10.13;9.23;;;;;;;13.50;100.00;98360.28;5045634;28;20270;-68
2021/08/23 06:02:14;;;;;;;10.17;9.10;;;;;;;13.57;100.00;98359.41;5052438;28;20227;-69
2021/08/23 06:04:42;;;;;;;9.80;9.07;;;;;;;13.65;100.00;98363.03;5048190;28;20202;-69
2021/08/23 06:07:09;;;;;;;10.93;10.03;;;;;;;13.69;100.00;98361.69;5047850;28;20208;-69
2021/08/23 06:09:39;;;;;;;11.77;10.67;;;;;;;13.77;100.00;98360.81;5044759;28;20199;-69
2021/08/23 06:12:07;;;;;;;11.80;10.60;;;;;;;13.78;100.00;98357.94;5044902;28;20254;-67
2021/08/23 06:14:40;;;;;;;12.27;11.07;;;;;;;13.78;100.00;98359.81;5049456;28;20361;-69
2021/08/23 06:17:08;;;;;;;11.00;10.10;;;;;;;13.89;100.00;98362.91;5056451;28;20211;-68
2021/08/23 06:19:36;;;;;;;11.40;10.27;;;;;;;13.90;100.00;98361.03;5049380;28;20581;-68
2021/08/23 06:22:04;;;;;;;11.07;10.23;;;;;;;13.99;100.00;98367.16;5046149;28;20223;-68
2021/08/23 06:24:32;;;;;;;11.80;10.50;;;;;;;13.94;100.00;98357.03;5054196;28;20207;-69
2021/08/23 06:27:02;;;;;;;10.60;9.80;;;;;;;13.99;100.00;98351.16;5053552;28;20318;-69
2021/08/23 06:29:30;;;;;;;11.17;10.17;;;;;;;14.05;100.00;98350.47;5049387;28;20397;-68
2021/08/23 06:31:58;;;;;;;10.83;10.00;;;;;;;14.30;100.00;98360.94;5051281;28;20222;-68
2021/08/23 06:34:26;;;;;;;10.80;10.00;;;;;;;14.29;100.00;98353.94;5043885;28;20270;-70
2021/08/23 06:36:53;;;;;;;9.90;9.00;;;;;;;14.27;100.00;98353.31;5051819;28;20217;-69
2021/08/23 06:39:21;;;;;;;10.53;9.73;;;;;;;14.38;100.00;98347.53;5044823;28;20416;-69
2021/08/23 06:41:50;;;;;;;9.93;9.03;;;;;;;14.30;100.00;98345.75;5049987;28;20228;-68
2021/08/23 06:44:20;;;;;;;11.43;10.47;;;;;;;14.43;100.00;98344.34;5056063;28;20199;-67
2021/08/23 06:46:48;;;;;;;9.70;9.00;;;;;;;14.35;100.00;98355.06;5049747;28;20788;-69
2021/08/23 06:49:16;;;;;;;9.87;9.07;;;;;;;14.37;100.00;98351.22;5050117;28;20200;-69
2021/08/23 06:51:44;;;;;;;10.80;9.77;;;;;;;14.47;100.00;98353.63;5051893;28;20226;-69
2021/08/23 06:54:17;;;;;;;9.50;8.87;;;;;;;14.59;100.00;98348.69;5048623;28;20709;-68
2021/08/23 06:56:45;;;;;;;10.13;9.23;;;;;;;14.80;100.00;98350.69;5045921;28;20237;-69
2021/08/23 06:59:13;;;;;;;9.23;8.50;;;;;;;14.98;100.00;98349.50;5047774;28;20200;-67
2021/08/23 07:01:42;;;;;;;9.50;8.80;;;;;;;15.17;100.00;98345.44;5055268;28;20226;-68
2021/08/23 07:04:10;;;;;;;9.73;8.80;;;;;;;15.12;100.00;98345.16;5047914;28;20696;-70
2021/08/23 07:06:38;;;;;;;8.53;7.83;;;;;;;15.23;100.00;98350.03;5055055;28;20203;-69
2021/08/23 07:09:06;;;;;;;8.70;8.00;;;;;;;15.33;100.00;98345.22;5048069;28;20582;-68
2021/08/23 07:11:34;;;;;;;8.37;7.77;;;;;;;15.25;100.00;98352.53;5051945;28;20730;-69
2021/08/23 07:14:02;;;;;;;8.97;8.07;;;;;;;15.19;100.00;98348.75;5049161;28;20204;-72
2021/08/23 07:16:30;;;;;;;9.57;8.70;;;;;;;15.13;100.00;98350.31;5049509;28;20224;-71
2021/08/23 07:18:59;;;;;;;10.43;7.90;;;;;;;15.11;100.00;98355.00;5051319;28;20721;-69
2021/08/23 07:21:27;;;;;;;10.27;9.27;;;;;;;14.88;100.00;98341.75;5044900;28;20231;-68
2021/08/23 07:23:55;;;;;;;8.13;7.63;;;;;;;15.07;100.00;98344.91;5055245;28;20574;-70
2021/08/23 07:26:23;;;;;;;8.87;8.10;;;;;;;15.01;100.00;98347.31;5045614;28;20899;-69
2021/08/23 07:28:51;;;;;;;8.53;7.90;;;;;;;15.22;100.00;98353.72;5050280;28;20210;-69
2021/08/23 07:31:21;;;;;;;8.33;7.73;;;;;;;15.45;100.00;98348.25;5051848;28;20223;-69
2021/08/23 07:33:49;;;;;;;8.90;8.20;;;;;;;15.45;100.00;98352.78;5041818;28;20523;-68
2021/08/23 07:36:18;;;;;;;8.40;7.73;;;;;;;15.55;100.00;98347.97;5049297;28;20606;-67
2021/08/23 07:38:46;;;;;;;8.73;8.00;;;;;;;15.52;100.00;98364.38;5045491;28;20694;-70
2021/08/23 07:41:14;;;;;;;9.20;8.40;;;;;;;15.66;100.00;98354.69;5046793;28;20227;-67
2021/08/23 07:43:42;;;;;;;8.37;7.77;;;;;;;15.47;100.00;98362.25;5056052;28;20209;-68
2021/08/23 07:46:10;;;;;;;8.47;7.83;;;;;;;15.38;100.00;98363.38;5048282;28;20552;-68
2021/08/23 07:48:38;;;;;;;9.57;8.67;;;;;;;15.44;100.00;98367.97;5051023;28;20207;-68
2021/08/23 07:51:06;;;;;;;8.87;8.17;;;;;;;15.34;100.00;98368.28;5047320;28;20227;-69
2021/08/23 07:53:36;;;;;;;9.20;8.43;;;;;;;15.48;100.00;98363.09;5045927;28;20208;-68
2021/08/23 07:56:04;;;;;;;9.57;8.67;;;;;;;15.57;100.00;98367.31;5047127;28;20203;-67
2021/08/23 07:58:32;;;;;;;9.47;8.67;;;;;;;15.63;100.00;98368.41;5050317;28;20218;-68
2021/08/23 08:01:00;;;;;;;9.27;8.57;;;;;;;15.61;100.00;98371.25;5047527;28;20231;-67
2021/08/23 08:03:28;;;;;;;8.13;7.63;;;;;;;15.68;100.00;98365.16;5049632;28;20204;-68
2021/08/23 08:05:56;;;;;;;7.73;7.03;;;;;;;15.74;100.00;98353.75;5053736;28;20202;-68
2021/08/23 08:08:25;;;;;;;8.60;8.00;;;;;;;15.56;100.00;98365.66;5042045;28;20768;-67
2021/08/23 08:10:56;;;;;;;8.57;7.93;;;;;;;15.67;100.00;98361.69;5045560;28;20223;-68
2021/08/23 08:13:24;;;;;;;8.10;7.53;;;;;;;15.64;100.00;98375.41;5043090;28;20208;-68
2021/08/23 08:15:52;;;;;;;9.43;8.60;;;;;;;15.73;100.00;98370.78;5047752;28;20215;-69
2021/08/23 08:18:20;;;;;;;9.10;8.40;;;;;;;15.97;100.00;98376.81;5045081;28;20207;-67
2021/08/23 08:20:48;;;;;;;8.17;7.63;;;;;;;16.05;100.00;98368.66;5043066;28;20231;-68
2021/08/23 08:23:16;;;;;;;8.03;7.53;;;;;;;16.23;100.00;98364.75;5049782;28;20204;-68
2021/08/23 08:25:44;;;;;;;7.47;6.93;;;;;;;16.33;100.00;98376.78;5049920;28;20213;-70
2021/08/23 08:28:14;;;;;;;8.93;8.33;;;;;;;16.46;100.00;98370.69;5044886;28;20196;-68
2021/08/23 08:30:42;;;;;;;7.53;6.93;;;;;;;16.68;100.00;98372.53;5042611;28;20218;-68
2021/08/23 08:33:10;;;;;;;8.50;7.90;;;;;;;16.65;100.00;98373.75;5049491;28;20203;-69
2021/08/23 08:35:38;;;;;;;8.70;8.10;;;;;;;16.85;100.00;98368.53;5046350;28;20256;-67
2021/08/23 08:38:06;;;;;;;7.63;6.87;;;;;;;17.04;100.00;98368.88;5045098;28;20235;-69
2021/08/23 08:40:37;;;;;;;8.60;7.80;;;;;;;17.00;100.00;98376.50;5048290;28;20291;-69
2021/08/23 08:43:05;;;;;;;8.47;7.77;;;;;;;16.58;100.00;98373.69;5040512;28;20203;-69
2021/08/23 08:45:35;;;;;;;8.37;7.77;;;;;;;16.54;100.00;98367.06;5043617;28;20207;-68
2021/08/23 08:48:03;;;;;;;8.03;7.53;;;;;;;16.51;100.00;98372.00;5043467;28;20619;-69
2021/08/23 08:50:31;;;;;;;7.67;7.17;;;;;;;16.78;100.00;98373.81;5046738;28;20219;-70
2021/08/23 08:53:03;;;;;;;8.33;7.83;;;;;;;16.70;100.00;98368.63;5047678;28;20202;-68
2021/08/23 08:55:35;;;;;;;7.80;7.30;;;;;;;16.97;100.00;98363.47;5044025;28;20214;-69
2021/08/23 08:58:05;;;;;;;10.40;9.50;;;;;;;17.01;100.00;98370.13;5049558;28;20238;-68
2021/08/23 09:00:36;;;;;;;8.13;7.33;;;;;;;17.31;100.00;98375.22;5046586;28;20231;-69
2021/08/23 09:03:05;;;;;;;8.27;7.60;;;;;;;17.21;100.00;98366.72;5045938;28;20477;-68
2021/08/23 09:05:37;;;;;;;9.17;8.47;;;;;;;17.58;100.00;98361.94;5053177;28;20200;-70
2021/08/23 09:08:06;;;;;;;8.40;7.70;;;;;;;17.34;100.00;98379.34;5039987;28;20204;-69
2021/08/23 09:10:39;;;;;;;8.20;7.63;;;;;;;17.05;100.00;98378.59;5044771;28;20223;-68
2021/08/23 09:13:09;;;;;;;8.83;8.23;;;;;;;16.89;100.00;98374.34;5051535;28;20405;-67
2021/08/23 09:15:51;;;;;;;9.20;8.33;;;;;;;16.67;100.00;98382.41;5045669;28;20271;-68
2021/08/23 09:18:21;;;;;;;10.10;9.23;;;;;;;16.60;100.00;98385.00;5046822;28;20594;-67
2021/08/23 09:20:57;;;;;;;10.63;9.70;;;;;;;16.88;100.00;98378.03;5041089;28;20228;-67
2021/08/23 09:23:34;;;;;;;9.27;8.53;;;;;;;16.84;100.00;98379.41;5045146;28;20262;-68
2021/08/23 09:26:12;;;;;;;9.03;8.43;;;;;;;16.54;100.00;98384.97;5042852;28;20215;-68
2021/08/23 09:28:42;;;;;;;9.43;8.73;;;;;;;16.93;100.00;98378.28;5051082;28;20206;-68
2021/08/23 09:31:11;;;;;;;9.03;8.33;;;;;;;17.18;100.00;98372.47;5042317;28;20258;-69
2021/08/23 09:33:44;;;;;;;9.00;8.27;;;;;;;17.49;100.00;98382.72;5047282;28;20200;-68
2021/08/23 09:36:12;;;;;;;9.67;8.97;;;;;;;17.60;100.00;98370.59;5040121;28;20200;-68
2021/08/23 09:38:40;;;;;;;9.13;8.50;;;;;;;17.88;100.00;98375.03;5052192;28;20225;-68
2021/08/23 09:41:08;;;;;;;10.50;9.63;;;;;;;17.48;100.00;98381.09;5042319;28;20223;-68
2021/08/23 09:43:36;;;;;;;10.47;9.67;;;;;;;17.37;100.00;98381.63;5043124;28;20553;-69
2021/08/23 09:46:10;;;;;;;9.67;8.90;;;;;;;17.25;100.00;98372.50;5052522;28;20207;-68
2021/08/23 09:48:53;;;;;;;9.80;9.00;;;;;;;17.07;100.00;98373.88;5047591;28;20206;-68
2021/08/23 09:51:27;;;;;;;8.93;8.30;;;;;;;17.31;100.00;98371.72;5055475;28;20358;-68
2021/08/23 09:54:06;;;;;;;8.60;8.00;;;;;;;17.27;100.00;98367.78;5049240;28;20491;-69
2021/08/23 09:56:35;;;;;;;7.93;7.40;;;;;;;17.43;100.00;98369.31;5054720;28;20198;-68
2021/08/23 09:59:03;;;;;;;8.37;7.77;;;;;;;17.54;100.00;98367.91;5052755;28;20219;-68
2021/08/23 10:01:32;;;;;;;9.30;8.50;;;;;;;17.45;100.00;98375.28;5053418;28;20421;-69
2021/08/23 10:04:04;;;;;;;9.13;8.40;;;;;;;17.64;100.00;98369.19;5052088;28;20231;-68
2021/08/23 10:06:34;;;;;;;8.40;7.80;;;;;;;17.49;100.00;98369.34;5055975;28;20203;-69
2021/08/23 10:09:03;;;;;;;8.67;8.07;;;;;;;17.52;100.00;98367.28;5048119;28;20437;-68
2021/08/23 10:11:32;;;;;;;9.20;8.43;;;;;;;17.54;100.00;98366.03;5047221;28;20228;-72
2021/08/23 10:14:01;;;;;;;9.83;8.97;;;;;;;17.55;100.00;98356.97;5046654;28;20230;-72
2021/08/23 10:16:29;;;;;;;9.83;9.03;;;;;;;17.29;100.00;98363.06;5048713;28;20393;-71
2021/08/23 10:18:58;;;;;;;10.63;9.93;;;;;;;17.34;100.00;98364.13;5049722;28;20638;-71
2021/08/23 10:21:28;;;;;;;8.73;8.10;;;;;;;17.35;100.00;98362.25;5044845;28;20239;-71
2021/08/23 10:23:56;;;;;;;9.70;9.00;;;;;;;17.53;100.00;98358.22;5046689;28;20288;-71
2021/08/23 10:26:25;;;;;;;9.83;8.93;;;;;;;17.45;100.00;98370.78;5046076;28;20565;-72
2021/08/23 10:28:53;;;;;;;9.60;8.83;;;;;;;17.46;100.00;98363.53;5051853;28;20202;-72
2021/08/23 10:31:23;;;;;;;9.37;8.47;;;;;;;17.45;100.00;98362.72;5047704;28;20239;-71
2021/08/23 10:33:51;;;;;;;7.87;7.27;;;;;;;17.60;100.00;98353.72;5050889;28;20202;-71
2021/08/23 10:36:19;;;;;;;8.03;7.37;;;;;;;17.65;100.00;98351.25;5042610;28;20504;-73
2021/08/23 10:38:49;;;;;;;7.20;6.70;;;;;;;17.98;100.00;98344.31;5050395;28;20212;-71
2021/08/23 10:41:18;;;;;;;8.57;7.87;;;;;;;18.03;100.00;98350.75;5044126;28;20250;-71
2021/08/23 10:43:48;;;;;;;7.90;7.13;;;;;;;18.21;100.00;98339.44;5048380;28;20203;-71
2021/08/23 10:46:21;;;;;;;7.33;6.83;;;;;;;17.72;100.00;98343.25;5050274;28;20616;-72
2021/08/23 10:48:50;;;;;;;7.40;6.73;;;;;;;17.71;100.00;98338.91;5047995;28;20698;-71
2021/08/23 10:51:29;;;;;;;7.30;6.70;;;;;;;18.41;100.00;98335.94;5046695;28;20680;-71
2021/08/23 10:53:59;;;;;;;6.83;6.30;;;;;;;18.80;100.00;98336.09;5049724;28;20726;-71
2021/08/23 10:56:35;;;;;;;6.57;6.10;;;;;;;19.44;100.00;98336.38;5046327;28;20338;-72
2021/08/23 10:59:19;;;;;;;5.57;5.27;;;;;;;19.65;100.00;98337.94;5050855;28;20203;-69
2021/08/23 11:01:54;;;;;;;6.63;6.13;;;;;;;19.68;100.00;98328.59;5047057;28;20231;-70
2021/08/23 11:04:33;;;;;;;6.70;6.20;;;;;;;19.66;100.00;98322.63;5043883;28;20526;-69
2021/08/23 11:07:02;;;;;;;6.10;5.70;;;;;;;19.36;100.00;98328.56;5047149;28;20208;-69
2021/08/23 11:09:37;;;;;;;6.20;5.70;;;;;;;19.21;100.00;98323.44;5049318;28;20924;-69
2021/08/23 11:12:16;;;;;;;5.90;5.50;;;;;;;19.45;100.00;98326.44;5053774;28;20223;-69
2021/08/23 11:14:50;;;;;;;6.57;6.10;;;;;;;19.39;100.00;98314.69;5048227;28;20196;-69
2021/08/23 11:17:32;;;;;;;6.50;5.97;;;;;;;19.53;100.00;98313.59;5047547;28;20191;-70
2021/08/23 11:20:02;;;;;;;6.13;5.73;;;;;;;19.62;100.00;98306.09;5052800;28;20397;-69
2021/08/23 11:22:31;;;;;;;6.60;6.10;;;;;;;19.67;100.00;98308.13;5045682;28;20226;-69
2021/08/23 11:25:00;;;;;;;5.67;5.13;;;;;;;20.06;99.84;98302.75;5043578;28;20408;-70
2021/08/23 11:27:28;;;;;;;6.53;6.13;;;;;;;19.86;100.00;98298.28;5044813;28;20305;-70
2021/08/23 11:29:57;;;;;;;5.63;5.23;;;;;;;20.04;99.85;98300.28;5045293;28;20200;-70
2021/08/23 11:32:27;;;;;;;5.93;5.43;;;;;;;19.80;98.69;98301.84;5045751;28;20212;-69